createdAt,value
2018-11-05T00:02:29.476Z,7.67
2018-11-05T00:06:33.541Z,7.70
2018-11-05T00:10:37.538Z,7.71
2018-11-05T00:14:41.419Z,7.73
2018-11-05T00:18:45.535Z,7.76
2018-11-05T00:22:49.443Z,7.69
2018-11-05T00:26:54.280Z,7.63
2018-11-05T00:30:58.460Z,7.64
2018-11-05T00:35:02.444Z,7.65
2018-11-05T00:39:09.140Z,7.61
2018-11-05T00:43:13.059Z,7.66
2018-11-05T00:47:17.316Z,7.66
2018-11-05T00:51:21.237Z,7.65
2018-11-05T00:55:25.172Z,7.65
2018-11-05T00:59:29.157Z,7.66
2018-11-05T01:03:33.052Z,7.64
2018-11-05T01:07:37.006Z,7.55
2018-11-05T01:11:40.985Z,7.51
2018-11-05T01:15:46.069Z,7.55
2018-11-05T01:19:51.395Z,7.62
2018-11-05T01:23:56.298Z,7.56
2018-11-05T01:28:01.229Z,7.53
2018-11-05T01:32:06.115Z,7.51
2018-11-05T01:36:10.447Z,7.53
2018-11-05T01:40:15.750Z,7.45
2018-11-05T01:44:20.095Z,7.41
2018-11-05T01:48:24.831Z,7.40
2018-11-05T01:52:30.273Z,7.41
2018-11-05T01:56:34.698Z,7.50
2018-11-05T02:00:39.102Z,7.45
2018-11-05T02:04:43.756Z,7.38
2018-11-05T02:08:48.567Z,7.31
2018-11-05T02:12:53.409Z,7.30
2018-11-05T02:16:57.990Z,7.32
2018-11-05T02:21:02.572Z,7.29
2018-11-05T02:25:08.692Z,7.26
2018-11-05T02:29:13.440Z,7.30
2018-11-05T02:33:17.894Z,7.30
2018-11-05T02:37:22.459Z,7.32
2018-11-05T02:41:27.027Z,7.30
2018-11-05T02:45:31.571Z,7.26
2018-11-05T02:49:35.789Z,7.23
2018-11-05T02:53:40.088Z,7.31
2018-11-05T02:57:44.510Z,7.31
2018-11-05T03:01:48.840Z,7.31
2018-11-05T03:05:53.116Z,7.32
2018-11-05T03:09:57.428Z,7.25
2018-11-05T03:14:01.863Z,7.26
2018-11-05T03:18:06.824Z,7.25
2018-11-05T03:22:11.127Z,7.27
2018-11-05T03:26:15.420Z,7.23
2018-11-05T03:30:19.850Z,7.19
2018-11-05T03:34:24.110Z,7.14
2018-11-05T03:38:28.452Z,7.09
2018-11-05T03:42:32.977Z,7.14
2018-11-05T03:46:38.635Z,7.11
2018-11-05T03:50:42.981Z,7.09
2018-11-05T03:54:47.964Z,7.09
2018-11-05T03:58:52.059Z,7.11
2018-11-05T04:02:56.833Z,7.12
2018-11-05T04:07:01.049Z,7.16
2018-11-05T04:11:05.765Z,7.03
2018-11-05T04:15:10.333Z,7.07
2018-11-05T04:19:15.249Z,7.20
2018-11-05T04:23:20.013Z,7.29
2018-11-05T04:27:24.172Z,7.28
2018-11-05T04:31:29.364Z,7.19
2018-11-05T04:35:34.037Z,7.17
2018-11-05T04:39:38.169Z,7.14
2018-11-05T04:43:42.770Z,7.14
2018-11-05T04:47:47.747Z,7.27
2018-11-05T04:51:52.277Z,7.25
2018-11-05T04:55:56.487Z,7.27
2018-11-05T05:00:05.393Z,7.28
2018-11-05T05:04:09.728Z,7.36
2018-11-05T05:08:15.005Z,7.36
2018-11-05T05:12:19.386Z,7.23
2018-11-05T05:16:23.901Z,7.23
2018-11-05T05:20:30.272Z,7.29
2018-11-05T05:24:35.046Z,7.22
2018-11-05T05:28:39.127Z,7.33
2018-11-05T05:32:44.941Z,7.31
2018-11-05T05:36:49.325Z,7.27
2018-11-05T05:40:53.515Z,7.36
2018-11-05T05:44:57.747Z,7.31
2018-11-05T05:49:02.447Z,7.13
2018-11-05T05:53:06.698Z,7.11
2018-11-05T05:57:11.796Z,6.97
2018-11-05T06:01:16.123Z,6.98
2018-11-05T06:05:20.617Z,6.92
2018-11-05T06:09:25.066Z,6.79
2018-11-05T06:13:29.436Z,6.78
2018-11-05T06:17:33.924Z,6.90
2018-11-05T06:21:38.219Z,6.89
2018-11-05T06:25:42.701Z,6.81
2018-11-05T06:29:46.908Z,6.74
2018-11-05T06:33:51.302Z,6.69
2018-11-05T06:37:55.564Z,6.70
2018-11-05T06:41:59.755Z,6.77
2018-11-05T06:46:04.011Z,6.76
2018-11-05T06:50:10.336Z,6.69
2018-11-05T06:54:15.076Z,6.71
2018-11-05T06:58:19.861Z,6.75
2018-11-05T07:02:24.275Z,6.91
2018-11-05T07:06:28.760Z,6.84
2018-11-05T07:10:33.786Z,6.92
2018-11-05T07:14:38.174Z,6.78
2018-11-05T07:18:42.515Z,6.87
2018-11-05T07:22:48.082Z,6.83
2018-11-05T07:26:53.510Z,6.98
2018-11-05T07:30:57.962Z,6.98
2018-11-05T07:35:02.455Z,7.06
2018-11-05T07:39:10.229Z,7.03
2018-11-05T07:43:14.945Z,7.22
2018-11-05T07:47:19.392Z,7.31
2018-11-05T07:51:23.845Z,7.35
2018-11-05T07:55:28.408Z,7.52
2018-11-05T07:59:32.833Z,7.75
2018-11-05T08:03:37.919Z,7.60
2018-11-05T08:07:43.301Z,7.70
2018-11-05T08:11:47.315Z,7.80
2018-11-05T08:15:51.812Z,7.79
2018-11-05T08:19:55.984Z,7.81
2018-11-05T08:24:00.078Z,7.73
2018-11-05T08:28:05.594Z,7.87
2018-11-05T08:32:09.592Z,7.90
2018-11-05T08:36:13.907Z,8.25
2018-11-05T08:40:23.967Z,8.48
2018-11-05T08:44:28.533Z,8.50
2018-11-05T08:48:33.273Z,9.05
2018-11-05T08:52:37.730Z,9.46
2018-11-05T08:56:41.684Z,9.75
2018-11-05T09:00:51.137Z,9.88
2018-11-05T09:04:55.480Z,9.74
2018-11-05T09:08:59.400Z,9.72
2018-11-05T09:13:03.567Z,9.85
2018-11-05T09:17:07.865Z,9.90
2018-11-05T09:21:12.312Z,9.99
2018-11-05T09:25:16.955Z,10.25
2018-11-05T09:29:21.170Z,10.95
2018-11-05T09:33:25.110Z,11.73
2018-11-05T09:37:29.179Z,12.60
2018-11-05T09:41:33.247Z,13.47
2018-11-05T09:45:37.547Z,14.33
2018-11-05T09:49:41.709Z,15.00
2018-11-05T09:53:45.733Z,15.07
2018-11-05T09:57:49.754Z,14.98
2018-11-05T10:01:54.075Z,14.67
2018-11-05T10:05:58.041Z,14.36
2018-11-05T10:10:03.387Z,14.44
2018-11-05T10:14:07.882Z,14.77
2018-11-05T10:18:11.930Z,14.59
2018-11-05T10:22:16.817Z,15.02
2018-11-05T10:26:20.843Z,15.10
2018-11-05T10:30:26.027Z,13.76
2018-11-05T10:34:30.039Z,13.43
2018-11-05T10:38:34.288Z,12.80
2018-11-05T10:42:39.343Z,12.70
2018-11-05T10:46:43.505Z,12.14
2018-11-05T10:50:47.782Z,11.46
2018-11-05T10:54:51.807Z,11.08
2018-11-05T10:58:56.137Z,11.13
2018-11-05T11:03:05.823Z,10.99
2018-11-05T11:07:09.990Z,11.28
2018-11-05T11:11:14.617Z,11.40
2018-11-05T11:15:18.897Z,11.20
2018-11-05T11:19:22.917Z,10.56
2018-11-05T11:23:27.207Z,10.83
2018-11-05T11:27:31.979Z,10.65
2018-11-05T11:31:35.911Z,10.94
2018-11-05T11:35:40.291Z,11.46
2018-11-05T11:39:44.431Z,11.27
2018-11-05T11:43:50.184Z,11.31
2018-11-05T11:47:54.191Z,11.27
2018-11-05T11:51:59.228Z,11.26
2018-11-05T11:56:03.251Z,11.20
2018-11-05T12:00:17.062Z,11.31
2018-11-05T12:04:21.063Z,11.40
2018-11-05T12:08:25.106Z,11.22
2018-11-05T12:12:29.182Z,11.23
2018-11-05T12:16:33.229Z,11.51
2018-11-05T12:20:37.593Z,11.53
2018-11-05T12:24:42.495Z,11.56
2018-11-05T12:28:48.087Z,11.26
2018-11-05T12:32:53.220Z,11.56
2018-11-05T12:36:57.392Z,11.78
2018-11-05T12:41:02.181Z,11.74
2018-11-05T12:45:07.391Z,11.44
2018-11-05T12:49:11.413Z,11.40
2018-11-05T12:53:15.718Z,11.26
2018-11-05T12:57:20.287Z,11.04
2018-11-05T13:01:24.420Z,11.40
2018-11-05T13:05:29.566Z,11.18
2018-11-05T13:09:33.785Z,11.30
2018-11-05T13:13:37.997Z,11.32
2018-11-05T13:17:42.330Z,11.44
2018-11-05T13:21:46.651Z,11.30
2018-11-05T13:25:50.860Z,11.25
2018-11-05T13:29:55.369Z,11.35
2018-11-05T13:33:59.268Z,11.49
2018-11-05T13:38:03.872Z,11.61
2018-11-05T13:42:07.342Z,11.94
2018-11-05T13:46:11.406Z,12.36
2018-11-05T13:50:15.870Z,12.45
2018-11-05T13:54:19.590Z,12.64
2018-11-05T13:58:24.105Z,12.28
2018-11-05T14:02:28.020Z,12.52
2018-11-05T14:06:33.198Z,12.69
2018-11-05T14:10:37.099Z,11.97
2018-11-05T14:14:41.531Z,11.94
2018-11-05T14:18:45.413Z,11.76
2018-11-05T14:22:49.316Z,11.76
2018-11-05T14:26:53.250Z,11.87
2018-11-05T14:30:57.135Z,12.35
2018-11-05T14:35:01.729Z,12.50
2018-11-05T14:39:09.121Z,12.15
2018-11-05T14:43:13.145Z,11.90
2018-11-05T14:47:16.872Z,12.08
2018-11-05T14:51:21.143Z,12.30
2018-11-05T14:55:24.915Z,11.98
2018-11-05T14:59:28.896Z,11.66
2018-11-05T15:03:32.824Z,11.43
2018-11-05T15:07:37.382Z,11.57
2018-11-05T15:11:41.098Z,11.62
2018-11-05T15:15:45.261Z,11.42
2018-11-05T15:19:49.421Z,11.31
2018-11-05T15:23:53.045Z,11.34
2018-11-05T15:27:57.337Z,11.21
2018-11-05T15:32:01.420Z,11.13
2018-11-05T15:36:05.806Z,11.20
2018-11-05T15:40:11.412Z,11.13
2018-11-05T15:44:15.296Z,11.09
2018-11-05T15:48:19.196Z,11.08
2018-11-05T15:52:23.952Z,10.81
2018-11-05T15:56:27.703Z,10.97
2018-11-05T16:00:31.635Z,10.97
2018-11-05T16:04:35.671Z,10.96
2018-11-05T16:08:39.476Z,10.94
2018-11-05T16:12:43.443Z,10.83
2018-11-05T16:16:47.317Z,10.91
2018-11-05T16:20:51.220Z,11.07
2018-11-05T16:24:55.137Z,10.86
2018-11-05T16:28:59.071Z,10.80
2018-11-05T16:33:03.012Z,10.83
2018-11-05T16:37:06.961Z,11.04
2018-11-05T16:41:10.824Z,11.04
2018-11-05T16:45:15.621Z,11.09
2018-11-05T16:49:19.859Z,11.10
2018-11-05T16:53:24.203Z,11.03
2018-11-05T16:57:28.186Z,11.04
2018-11-05T17:01:32.405Z,11.03
2018-11-05T17:05:36.309Z,11.00
2018-11-05T17:09:41.180Z,10.84
2018-11-05T17:13:45.526Z,10.81
2018-11-05T17:17:49.354Z,10.73
2018-11-05T17:21:53.256Z,10.58
2018-11-05T17:25:57.364Z,10.27
2018-11-05T17:30:01.476Z,10.15
2018-11-05T17:34:06.237Z,10.09
2018-11-05T17:38:10.109Z,10.10
2018-11-05T17:42:13.984Z,10.22
2018-11-05T17:46:17.889Z,10.18
2018-11-05T17:50:22.413Z,10.12
2018-11-05T17:54:26.302Z,10.11
2018-11-05T17:58:30.162Z,10.22
2018-11-05T18:02:34.527Z,10.20
2018-11-05T18:06:38.456Z,10.27
2018-11-05T18:10:42.389Z,10.27
2018-11-05T18:14:46.343Z,10.18
2018-11-05T18:18:50.331Z,10.14
2018-11-05T18:22:54.480Z,10.20
2018-11-05T18:26:58.433Z,10.22
2018-11-05T18:31:02.797Z,10.16
2018-11-05T18:35:08.626Z,9.98
2018-11-05T18:39:12.685Z,9.95
2018-11-05T18:43:16.568Z,9.97
2018-11-05T18:47:21.572Z,9.95
2018-11-05T18:51:25.474Z,9.91
2018-11-05T18:55:30.740Z,9.92
2018-11-05T18:59:34.895Z,9.96
2018-11-05T19:03:38.891Z,9.98
2018-11-05T19:07:42.885Z,9.92
2018-11-05T19:11:47.090Z,9.94
2018-11-05T19:15:51.011Z,9.90
2018-11-05T19:19:54.812Z,9.92
2018-11-05T19:23:59.063Z,9.95
2018-11-05T19:28:02.915Z,10.02
2018-11-05T19:32:08.310Z,9.97
2018-11-05T19:36:12.327Z,10.02
2018-11-05T19:40:17.885Z,10.00
2018-11-05T19:44:21.768Z,9.95
2018-11-05T19:48:26.418Z,9.96
2018-11-05T19:52:30.349Z,9.97
2018-11-05T19:56:34.621Z,9.88
2018-11-05T20:00:38.556Z,9.76
2018-11-05T20:04:42.978Z,9.82
2018-11-05T20:08:47.250Z,9.76
2018-11-05T20:12:51.371Z,9.78
2018-11-05T20:16:57.167Z,9.76
2018-11-05T20:21:00.912Z,9.58
2018-11-05T20:25:07.536Z,9.51
2018-11-05T20:29:11.524Z,9.52
2018-11-05T20:33:15.779Z,9.57
2018-11-05T20:37:19.324Z,9.60
2018-11-05T20:41:23.512Z,9.59
2018-11-05T20:45:27.430Z,9.54
2018-11-05T20:49:32.496Z,9.49
2018-11-05T20:53:36.575Z,9.45
2018-11-05T20:57:41.048Z,9.48
2018-11-05T21:01:44.981Z,9.44
2018-11-05T21:05:49.340Z,9.49
2018-11-05T21:09:53.213Z,9.48
2018-11-05T21:13:58.551Z,9.48
2018-11-05T21:18:02.611Z,9.45
2018-11-05T21:22:09.273Z,9.37
2018-11-05T21:26:13.104Z,9.25
2018-11-05T21:30:18.403Z,9.21
2018-11-05T21:34:22.304Z,9.05
2018-11-05T21:38:26.217Z,8.95
2018-11-05T21:42:30.165Z,8.80
2018-11-05T21:46:34.212Z,8.71
2018-11-05T21:50:38.110Z,8.72
2018-11-05T21:54:42.001Z,8.74
2018-11-05T21:58:45.942Z,8.73
2018-11-05T22:02:55.599Z,8.75
2018-11-05T22:06:59.495Z,8.74
2018-11-05T22:11:03.410Z,8.69
2018-11-05T22:15:07.382Z,8.65
2018-11-05T22:19:12.344Z,8.56
2018-11-05T22:23:17.734Z,8.52
2018-11-05T22:27:22.472Z,8.34
2018-11-05T22:31:27.521Z,8.34
2018-11-05T22:35:32.414Z,8.36
2018-11-05T22:39:36.295Z,8.33
2018-11-05T22:43:40.276Z,8.30
2018-11-05T22:47:44.961Z,8.22
2018-11-05T22:51:49.901Z,8.12
2018-11-05T22:55:54.987Z,8.01
2018-11-05T22:59:59.001Z,8.01
2018-11-05T23:04:03.765Z,8.03
2018-11-05T23:08:07.655Z,8.05
2018-11-05T23:12:11.818Z,8.04
2018-11-05T23:16:16.098Z,8.01
2018-11-05T23:20:20.126Z,8.01
2018-11-05T23:24:24.241Z,7.91
2018-11-05T23:28:28.435Z,7.86
2018-11-05T23:32:32.372Z,7.87
2018-11-05T23:36:36.820Z,7.87
2018-11-05T23:40:40.738Z,7.85
2018-11-05T23:44:44.728Z,7.79
2018-11-05T23:48:48.656Z,7.80
2018-11-05T23:52:52.838Z,7.74
2018-11-05T23:56:56.724Z,7.71
